Time,TemperatureF,DewpointF,PressureIn,WindDirection,WindDirectionDegrees,WindSpeedMPH,WindSpeedGustMPH,Humidity,HourlyPrecipIn,Conditions,Clouds,dailyrainin,SoftwareType,DateUTC
2013-11-18 00:01:00,57.4,55.1,29.46,SW,235,8.0,13.0,92,0.00,,OVC045,0.01,VWS V14.01,2013-11-18 05:01:00,
2013-11-18 00:02:00,57.4,55.1,29.46,SW,224,6.0,13.0,92,0.00,,OVC045,0.01,VWS V14.01,2013-11-18 05:02:00,
2013-11-18 00:07:00,57.3,55.0,29.46,SW,218,6.0,9.0,92,0.01,,OVC045,0.01,VWS V14.01,2013-11-18 05:07:00,
2013-11-18 00:12:00,57.1,55.1,29.45,SW,222,5.0,9.0,93,0.01,,OVC045,0.01,VWS V14.01,2013-11-18 05:12:00,
2013-11-18 00:17:00,57.0,55.3,29.45,WSW,239,10.0,12.0,94,0.01,,OVC045,0.01,VWS V14.01,2013-11-18 05:17:00,
2013-11-18 00:22:00,57.1,55.4,29.45,WSW,250,7.0,12.0,94,0.01,,OVC045,0.01,VWS V14.01,2013-11-18 05:22:00,
2013-11-18 00:27:00,57.2,55.5,29.47,West,272,4.0,12.0,94,0.02,,OVC045,0.02,VWS V14.01,2013-11-18 05:27:00,
2013-11-18 00:33:00,57.1,55.4,29.50,WSW,253,3.0,12.0,94,0.03,,OVC045,0.03,VWS V14.01,2013-11-18 05:33:00,
2013-11-18 00:38:00,56.6,54.6,29.47,West,262,7.0,12.0,93,0.03,,OVC045,0.03,VWS V14.01,2013-11-18 05:38:00,
2013-11-18 00:43:00,56.2,53.6,29.45,West,259,3.0,12.0,91,0.03,,OVC045,0.03,VWS V14.01,2013-11-18 05:43:00,
2013-11-18 00:48:00,56.0,53.4,29.46,SW,236,3.0,12.0,91,0.03,,OVC060,0.03,VWS V14.01,2013-11-18 05:48:00,
2013-11-18 00:53:00,55.7,53.1,29.47,West,262,3.0,12.0,91,0.03,,OVC060,0.03,VWS V14.01,2013-11-18 05:53:00,
2013-11-18 00:58:00,55.9,52.7,29.48,West,274,3.0,12.0,89,0.03,,OVC060,0.03,VWS V14.01,2013-11-18 05:58:00,
2013-11-18 01:03:00,55.9,52.1,29.47,West,273,4.0,4.0,87,0.03,,OVC060,0.03,VWS V14.01,2013-11-18 06:03:00,
2013-11-18 01:08:00,56.2,51.1,29.46,WSW,256,5.0,9.0,83,0.03,,OVC060,0.03,VWS V14.01,2013-11-18 06:08:00,
2013-11-18 01:13:00,56.2,50.1,29.45,WSW,239,4.0,11.0,80,0.04,,OVC060,0.04,VWS V14.01,2013-11-18 06:13:00,
2013-11-18 01:18:00,56.3,49.2,29.43,WSW,248,15.0,15.0,77,0.04,,OVC060,0.04,VWS V14.01,2013-11-18 06:18:00,
2013-11-18 01:23:00,56.1,49.3,29.44,WSW,239,6.0,15.0,78,0.04,,OVC060,0.04,VWS V14.01,2013-11-18 06:23:00,
2013-11-18 01:29:00,56.1,48.3,29.44,WSW,241,13.0,15.0,75,0.04,,OVC060,0.04,VWS V14.01,2013-11-18 06:29:00,
2013-11-18 01:34:00,56.3,45.9,29.43,WSW,238,18.0,24.0,68,0.01,,OVC060,0.04,VWS V14.01,2013-11-18 06:34:00,
2013-11-18 01:39:00,57.2,43.9,29.42,WSW,241,21.0,26.0,61,0.01,,OVC060,0.04,VWS V14.01,2013-11-18 06:39:00,
2013-11-18 01:44:00,57.3,44.0,29.42,SW,222,12.0,26.0,61,0.01,,OVC060,0.04,VWS V14.01,2013-11-18 06:44:00,
2013-11-18 01:49:00,57.5,43.7,29.44,SW,232,11.0,26.0,60,0.01,,-RA,0.04,VWS V14.01,2013-11-18 06:49:00,
2013-11-18 01:54:00,57.7,43.5,29.43,WSW,253,7.0,26.0,59,0.01,,-RA,0.04,VWS V14.01,2013-11-18 06:54:00,
2013-11-18 01:59:00,57.8,43.1,29.44,West,262,12.0,26.0,58,0.01,,-RA,0.04,VWS V14.01,2013-11-18 06:59:00,
2013-11-18 02:04:00,57.9,43.7,29.43,WSW,253,9.0,11.0,59,0.01,,-RA,0.04,VWS V14.01,2013-11-18 07:04:00,
2013-11-18 02:09:00,57.9,43.7,29.43,WSW,250,6.0,16.0,59,0.01,,-RA,0.04,VWS V14.01,2013-11-18 07:09:00,
2013-11-18 02:14:00,57.8,44.0,29.45,West,264,9.0,16.0,60,0.01,,-RA,0.04,VWS V14.01,2013-11-18 07:14:00,
2013-11-18 02:20:00,57.7,44.4,29.45,West,259,13.0,16.0,61,0.01,,-RA,0.04,VWS V14.01,2013-11-18 07:20:00,
2013-11-18 02:25:00,57.8,44.5,29.45,West,270,5.0,16.0,61,0.01,,-RA,0.04,VWS V14.01,2013-11-18 07:25:00,
2013-11-18 02:30:00,57.6,45.5,29.47,WNW,300,4.0,16.0,64,0.01,,-RA,0.04,VWS V14.01,2013-11-18 07:30:00,
2013-11-18 02:35:00,56.2,46.6,29.47,West,276,4.0,4.0,70,0.00,,-RA,0.04,VWS V14.01,2013-11-18 07:35:00,
2013-11-18 02:40:00,55.2,46.7,29.47,West,279,1.0,5.0,73,0.00,,-RA,0.04,VWS V14.01,2013-11-18 07:40:00,
2013-11-18 02:45:00,54.4,46.3,29.47,WSW,243,5.0,8.0,74,0.00,,-RA,0.04,VWS V14.01,2013-11-18 07:45:00,
2013-11-18 02:50:00,53.9,45.8,29.48,WSW,257,6.0,11.0,74,0.00,,-RA,0.04,VWS V14.01,2013-11-18 07:50:00,
2013-11-18 02:55:00,53.5,45.8,29.48,West,260,8.0,11.0,75,0.00,,-RA,0.04,VWS V14.01,2013-11-18 07:55:00,
2013-11-18 03:00:00,53.3,45.6,29.48,WSW,256,5.0,11.0,75,0.00,,-RA,0.04,VWS V14.01,2013-11-18 08:00:00,
2013-11-18 03:05:00,53.3,45.6,29.49,WSW,253,7.0,8.0,75,0.00,,-RA,0.04,VWS V14.01,2013-11-18 08:05:00,
2013-11-18 03:10:00,53.3,45.2,29.49,West,274,5.0,14.0,74,0.00,,-RA,0.04,VWS V14.01,2013-11-18 08:10:00,
2013-11-18 03:15:00,53.1,45.0,29.49,West,260,4.0,14.0,74,0.00,,-RA,0.04,VWS V14.01,2013-11-18 08:15:00,
2013-11-18 03:21:00,52.9,44.5,29.49,West,263,6.0,14.0,73,0.00,,-RA,0.04,VWS V14.01,2013-11-18 08:21:00,
2013-11-18 03:26:00,53.0,44.2,29.49,WSW,253,5.0,14.0,72,0.00,,-RA,0.04,VWS V14.01,2013-11-18 08:26:00,
2013-11-18 03:31:00,53.0,43.5,29.49,West,267,7.0,14.0,70,0.00,,-RA,0.04,VWS V14.01,2013-11-18 08:31:00,
2013-11-18 03:36:00,53.2,42.5,29.49,West,266,10.0,14.0,67,0.00,,-RA,0.04,VWS V14.01,2013-11-18 08:36:00,
2013-11-18 03:41:00,53.4,41.5,29.49,West,276,11.0,15.0,64,0.00,,-RA,0.04,VWS V14.01,2013-11-18 08:41:00,
2013-11-18 03:46:00,53.6,40.9,29.50,West,269,10.0,27.0,62,0.00,,BKN080,0.04,VWS V14.01,2013-11-18 08:46:00,
2013-11-18 03:51:00,53.8,41.1,29.50,West,271,4.0,27.0,62,0.00,,BKN080,0.04,VWS V14.01,2013-11-18 08:51:00,
2013-11-18 03:56:00,53.7,41.4,29.50,West,273,10.0,27.0,63,0.00,,BKN080,0.04,VWS V14.01,2013-11-18 08:56:00,
2013-11-18 04:01:00,53.6,41.3,29.51,West,263,13.0,27.0,63,0.00,,BKN080,0.04,VWS V14.01,2013-11-18 09:01:00,
2013-11-18 04:06:00,53.5,41.2,29.51,SW,235,9.0,17.0,63,0.00,,BKN080,0.04,VWS V14.01,2013-11-18 09:06:00,
2013-11-18 04:11:00,53.4,41.1,29.52,West,276,8.0,17.0,63,0.00,,BKN080,0.04,VWS V14.01,2013-11-18 09:11:00,
2013-11-18 04:17:00,53.3,41.5,29.52,WSW,257,9.0,20.0,64,0.00,,BKN080,0.04,VWS V14.01,2013-11-18 09:17:00,
2013-11-18 04:22:00,53.2,41.0,29.52,West,277,8.0,20.0,63,0.00,,BKN080,0.04,VWS V14.01,2013-11-18 09:22:00,
2013-11-18 04:27:00,53.1,40.8,29.53,West,263,14.0,20.0,63,0.00,,BKN080,0.04,VWS V14.01,2013-11-18 09:27:00,
2013-11-18 04:32:00,53.1,40.8,29.53,West,262,6.0,20.0,63,0.00,,BKN080,0.04,VWS V14.01,2013-11-18 09:32:00,
2013-11-18 04:37:00,52.9,41.1,29.54,WNW,285,8.0,14.0,64,0.00,,BKN080,0.04,VWS V14.01,2013-11-18 09:37:00,
2013-11-18 04:42:00,52.9,41.1,29.54,West,269,9.0,17.0,64,0.00,,BKN080,0.04,VWS V14.01,2013-11-18 09:42:00,
2013-11-18 04:47:00,52.8,41.0,29.55,West,269,8.0,17.0,64,0.00,,FEW049,0.04,VWS V14.01,2013-11-18 09:47:00,
2013-11-18 04:52:00,52.8,41.0,29.55,WSW,256,13.0,19.0,64,0.00,,FEW049,0.04,VWS V14.01,2013-11-18 09:52:00,
2013-11-18 04:57:00,52.8,41.0,29.55,West,272,7.0,19.0,64,0.00,,FEW049,0.04,VWS V14.01,2013-11-18 09:57:00,
2013-11-18 05:02:00,52.5,41.5,29.55,WNW,302,6.0,19.0,66,0.00,,FEW049,0.04,VWS V14.01,2013-11-18 10:02:00,
2013-11-18 05:08:00,52.3,41.3,29.55,WSW,245,9.0,11.0,66,0.00,,FEW049,0.04,VWS V14.01,2013-11-18 10:08:00,
2013-11-18 05:13:00,52.4,41.0,29.55,West,267,7.0,15.0,65,0.00,,FEW049,0.04,VWS V14.01,2013-11-18 10:13:00,
2013-11-18 05:18:00,52.3,40.9,29.55,West,264,7.0,18.0,65,0.00,,FEW049,0.04,VWS V14.01,2013-11-18 10:18:00,
2013-11-18 05:23:00,52.2,41.2,29.55,WSW,257,11.0,18.0,66,0.00,,FEW049,0.04,VWS V14.01,2013-11-18 10:23:00,
2013-11-18 05:28:00,52.0,41.4,29.56,West,262,5.0,18.0,67,0.00,,FEW049,0.04,VWS V14.01,2013-11-18 10:28:00,
2013-11-18 05:33:00,51.8,41.6,29.56,West,264,6.0,18.0,68,0.00,,FEW049,0.04,VWS V14.01,2013-11-18 10:33:00,
2013-11-18 05:38:00,51.7,41.5,29.55,WSW,257,5.0,10.0,68,0.00,,FEW049,0.04,VWS V14.01,2013-11-18 10:38:00,
2013-11-18 05:43:00,51.7,41.5,29.56,West,266,9.0,10.0,68,0.00,,FEW049,0.04,VWS V14.01,2013-11-18 10:43:00,
2013-11-18 05:48:00,51.7,41.5,29.56,WSW,257,6.0,14.0,68,0.00,,FEW055,0.04,VWS V14.01,2013-11-18 10:48:00,
2013-11-18 05:53:00,51.8,41.2,29.57,WNW,287,4.0,14.0,67,0.00,,FEW055,0.04,VWS V14.01,2013-11-18 10:53:00,
2013-11-18 05:58:00,51.7,41.5,29.57,WSW,256,7.0,14.0,68,0.00,,FEW055,0.04,VWS V14.01,2013-11-18 10:58:00,
2013-11-18 06:04:00,51.5,41.7,29.57,WSW,255,4.0,7.0,69,0.00,,FEW055,0.04,VWS V14.01,2013-11-18 11:04:00,
2013-11-18 06:09:00,51.4,41.2,29.57,West,260,5.0,10.0,68,0.00,,FEW055,0.04,VWS V14.01,2013-11-18 11:09:00,
2013-11-18 06:14:00,51.3,41.1,29.57,West,263,7.0,10.0,68,0.00,,FEW055,0.04,VWS V14.01,2013-11-18 11:14:00,
2013-11-18 06:19:00,51.3,41.1,29.57,WSW,256,4.0,10.0,68,0.00,,FEW055,0.04,VWS V14.01,2013-11-18 11:19:00,
2013-11-18 06:24:00,51.2,41.4,29.57,West,260,4.0,10.0,69,0.00,,FEW055,0.04,VWS V14.01,2013-11-18 11:24:00,
2013-11-18 06:29:00,51.1,41.3,29.57,West,259,3.0,10.0,69,0.00,,FEW055,0.04,VWS V14.01,2013-11-18 11:29:00,
2013-11-18 06:34:00,51.0,41.2,29.57,WSW,253,4.0,6.0,69,0.00,,FEW055,0.04,VWS V14.01,2013-11-18 11:34:00,
2013-11-18 06:39:00,50.9,41.5,29.58,WSW,256,3.0,6.0,70,0.00,,FEW055,0.04,VWS V14.01,2013-11-18 11:39:00,
2013-11-18 06:44:00,50.7,41.3,29.57,WSW,257,5.0,7.0,70,0.00,,FEW055,0.04,VWS V14.01,2013-11-18 11:44:00,
2013-11-18 06:49:00,50.8,41.4,29.57,West,265,5.0,8.0,70,0.00,,BKN050,0.04,VWS V14.01,2013-11-18 11:49:00,
2013-11-18 06:54:00,50.8,41.4,29.58,WSW,257,5.0,8.0,70,0.00,,BKN050,0.04,VWS V14.01,2013-11-18 11:54:00,
2013-11-18 07:00:00,50.7,41.7,29.58,West,274,3.0,8.0,71,0.00,,BKN050,0.04,VWS V14.01,2013-11-18 12:00:00,
2013-11-18 07:05:00,50.5,41.5,29.59,West,270,3.0,4.0,71,0.00,,BKN050,0.04,VWS V14.01,2013-11-18 12:05:00,
2013-11-18 07:10:00,50.4,41.4,29.59,West,276,5.0,9.0,71,0.00,,BKN050,0.04,VWS V14.01,2013-11-18 12:10:00,
2013-11-18 07:15:00,50.3,40.5,29.59,WSW,248,10.0,14.0,69,0.00,,BKN050,0.04,VWS V14.01,2013-11-18 12:15:00,
2013-11-18 07:20:00,50.1,40.0,29.60,West,269,8.0,15.0,68,0.00,,BKN050,0.04,VWS V14.01,2013-11-18 12:20:00,
2013-11-18 07:25:00,49.9,40.2,29.60,NW,308,6.0,15.0,69,0.00,,BKN050,0.04,VWS V14.01,2013-11-18 12:25:00,
2013-11-18 07:30:00,49.6,38.7,29.60,WSW,256,8.0,15.0,66,0.00,,BKN050,0.04,VWS V14.01,2013-11-18 12:30:00,
2013-11-18 07:35:00,49.4,38.5,29.60,West,270,6.0,9.0,66,0.00,,BKN050,0.04,VWS V14.01,2013-11-18 12:35:00,
2013-11-18 07:40:00,49.2,38.3,29.60,WNW,283,4.0,12.0,66,0.00,,BKN050,0.04,VWS V14.01,2013-11-18 12:40:00,
2013-11-18 07:45:00,49.1,38.2,29.61,West,281,9.0,20.0,66,0.00,,BKN050,0.04,VWS V14.01,2013-11-18 12:45:00,
2013-11-18 07:51:00,49.1,38.6,29.60,WSW,238,5.0,20.0,67,0.00,,BKN050,0.04,VWS V14.01,2013-11-18 12:51:00,
2013-11-18 07:56:00,49.2,38.7,29.60,WNW,293,5.0,20.0,67,0.00,,BKN050,0.04,VWS V14.01,2013-11-18 12:56:00,
2013-11-18 08:01:00,49.2,38.0,29.61,West,260,8.0,20.0,65,0.00,,BKN050,0.04,VWS V14.01,2013-11-18 13:01:00,
2013-11-18 08:06:00,49.3,37.7,29.61,WSW,256,10.0,13.0,64,0.00,,BKN050,0.04,VWS V14.01,2013-11-18 13:06:00,
2013-11-18 08:11:00,49.5,37.0,29.60,West,281,7.0,18.0,62,0.00,,BKN050,0.04,VWS V14.01,2013-11-18 13:11:00,
2013-11-18 08:16:00,49.5,36.6,29.60,SW,236,6.0,18.0,61,0.00,,FEW055,0.04,VWS V14.01,2013-11-18 13:16:00,
2013-11-18 08:21:00,49.6,37.1,29.61,WSW,242,5.0,18.0,62,0.00,,FEW055,0.04,VWS V14.01,2013-11-18 13:21:00,
2013-11-18 08:26:00,49.8,37.3,29.61,WSW,253,6.0,18.0,62,0.00,,FEW055,0.04,VWS V14.01,2013-11-18 13:26:00,
2013-11-18 08:31:00,50.0,37.5,29.61,West,264,7.0,18.0,62,0.00,,FEW055,0.04,VWS V14.01,2013-11-18 13:31:00,
2013-11-18 08:36:00,50.2,37.3,29.61,WSW,239,14.0,19.0,61,0.00,,FEW055,0.04,VWS V14.01,2013-11-18 13:36:00,
2013-11-18 08:41:00,50.5,37.2,29.61,WSW,246,7.0,19.0,60,0.00,,FEW055,0.04,VWS V14.01,2013-11-18 13:41:00,
2013-11-18 08:46:00,50.6,36.8,29.61,WSW,248,17.0,19.0,59,0.00,,SCT041,0.04,VWS V14.01,2013-11-18 13:46:00,
2013-11-18 08:52:00,50.6,36.8,29.61,WSW,257,10.0,19.0,59,0.00,,SCT041,0.04,VWS V14.01,2013-11-18 13:52:00,
2013-11-18 08:57:00,50.4,36.2,29.61,WSW,239,11.0,19.0,58,0.00,,SCT041,0.04,VWS V14.01,2013-11-18 13:57:00,
2013-11-18 09:02:00,50.4,36.2,29.61,West,271,11.0,19.0,58,0.00,,SCT041,0.04,VWS V14.01,2013-11-18 14:02:00,
2013-11-18 09:07:00,50.4,36.2,29.61,WSW,242,7.0,15.0,58,0.00,,SCT041,0.04,VWS V14.01,2013-11-18 14:07:00,
2013-11-18 09:12:00,50.4,35.3,29.61,SW,236,11.0,17.0,56,0.00,,SCT041,0.04,VWS V14.01,2013-11-18 14:12:00,
2013-11-18 09:17:00,50.3,35.7,29.62,West,278,10.0,18.0,57,0.00,,SCT041,0.04,VWS V14.01,2013-11-18 14:17:00,
2013-11-18 09:22:00,50.1,35.0,29.61,West,281,9.0,18.0,56,0.00,,SCT041,0.04,VWS V14.01,2013-11-18 14:22:00,
2013-11-18 09:27:00,50.2,35.6,29.61,SW,233,11.0,18.0,57,0.00,,SCT041,0.04,VWS V14.01,2013-11-18 14:27:00,
2013-11-18 09:32:00,50.1,35.0,29.62,WSW,245,11.0,22.0,56,0.00,,SCT041,0.04,VWS V14.01,2013-11-18 14:32:00,
2013-11-18 09:37:00,50.1,34.6,29.62,West,274,10.0,20.0,55,0.00,,SCT041,0.04,VWS V14.01,2013-11-18 14:37:00,
2013-11-18 09:42:00,50.2,35.6,29.62,WNW,287,10.0,20.0,57,0.00,,SCT041,0.04,VWS V14.01,2013-11-18 14:42:00,
2013-11-18 09:48:00,50.4,35.8,29.62,WSW,242,17.0,22.0,57,0.00,,FEW039,0.04,VWS V14.01,2013-11-18 14:48:00,
2013-11-18 09:53:00,50.4,35.8,29.63,West,266,11.0,22.0,57,0.00,,FEW039,0.04,VWS V14.01,2013-11-18 14:53:00,
2013-11-18 09:58:00,50.5,35.4,29.63,WSW,248,12.0,22.0,56,0.00,,FEW039,0.04,VWS V14.01,2013-11-18 14:58:00,
2013-11-18 10:03:00,50.6,35.9,29.63,SW,226,8.0,22.0,57,0.00,,FEW039,0.04,VWS V14.01,2013-11-18 15:03:00,
2013-11-18 10:08:00,50.8,35.2,29.63,WSW,252,8.0,27.0,55,0.00,,FEW039,0.04,VWS V14.01,2013-11-18 15:08:00,
2013-11-18 10:13:00,51.0,35.4,29.62,West,279,9.0,27.0,55,0.00,,FEW039,0.04,VWS V14.01,2013-11-18 15:13:00,
2013-11-18 10:18:00,51.0,35.4,29.63,West,263,10.0,27.0,55,0.00,,FEW039,0.04,VWS V14.01,2013-11-18 15:18:00,
2013-11-18 10:24:00,51.2,35.6,29.63,WSW,240,6.0,27.0,55,0.00,,FEW039,0.04,VWS V14.01,2013-11-18 15:24:00,
2013-11-18 10:29:00,51.5,35.9,29.62,WSW,248,12.0,27.0,55,0.00,,FEW039,0.04,VWS V14.01,2013-11-18 15:29:00,
2013-11-18 10:34:00,51.6,36.0,29.62,WSW,257,8.0,11.0,55,0.00,,FEW039,0.04,VWS V14.01,2013-11-18 15:34:00,
2013-11-18 10:39:00,51.6,35.5,29.62,WSW,257,8.0,17.0,54,0.00,,FEW039,0.04,VWS V14.01,2013-11-18 15:39:00,
2013-11-18 10:44:00,51.9,35.8,29.63,WSW,243,15.0,17.0,54,0.00,,FEW039,0.04,VWS V14.01,2013-11-18 15:44:00,
2013-11-18 10:49:00,51.7,35.1,29.62,WSW,249,11.0,17.0,53,0.00,,CLR,0.04,VWS V14.01,2013-11-18 15:49:00,
2013-11-18 10:51:00,51.6,35.5,29.62,WSW,243,8.0,17.0,54,0.00,,CLR,0.04,VWS V14.01,2013-11-18 15:51:00,
2013-11-18 10:56:00,51.5,35.0,29.62,SW,232,15.0,18.0,53,0.00,,CLR,0.04,VWS V14.01,2013-11-18 15:56:00,
2013-11-18 11:01:00,51.6,35.5,29.62,WSW,248,9.0,18.0,54,0.00,,CLR,0.04,VWS V14.01,2013-11-18 16:01:00,
2013-11-18 11:06:00,51.8,35.7,29.62,WSW,248,13.0,19.0,54,0.00,,CLR,0.04,VWS V14.01,2013-11-18 16:06:00,
2013-11-18 11:12:00,51.7,35.1,29.61,WSW,245,13.0,21.0,53,0.00,,CLR,0.04,VWS V14.01,2013-11-18 16:12:00,
2013-11-18 11:17:00,51.8,35.2,29.61,WSW,245,17.0,21.0,53,0.00,,CLR,0.04,VWS V14.01,2013-11-18 16:17:00,
2013-11-18 11:22:00,51.8,35.2,29.61,WSW,255,10.0,21.0,53,0.00,,CLR,0.04,VWS V14.01,2013-11-18 16:22:00,
2013-11-18 11:27:00,51.7,35.1,29.61,West,263,10.0,21.0,53,0.00,,CLR,0.04,VWS V14.01,2013-11-18 16:27:00,
2013-11-18 11:32:00,51.8,35.2,29.61,West,259,8.0,21.0,53,0.00,,CLR,0.04,VWS V14.01,2013-11-18 16:32:00,
2013-11-18 11:37:00,52.0,35.4,29.61,WSW,238,9.0,16.0,53,0.00,,CLR,0.04,VWS V14.01,2013-11-18 16:37:00,
2013-11-18 11:42:00,52.1,35.5,29.61,WSW,246,6.0,16.0,53,0.00,,CLR,0.04,VWS V14.01,2013-11-18 16:42:00,
2013-11-18 11:47:00,52.0,34.9,29.60,West,259,6.0,16.0,52,0.00,,CLR,0.04,VWS V14.01,2013-11-18 16:47:00,
2013-11-18 11:53:00,52.2,35.1,29.60,WSW,239,12.0,16.0,52,0.00,,CLR,0.04,VWS V14.01,2013-11-18 16:53:00,
2013-11-18 11:58:00,52.6,36.0,29.61,WNW,284,10.0,16.0,53,0.00,,CLR,0.04,VWS V14.01,2013-11-18 16:58:00,
2013-11-18 12:03:00,52.2,34.6,29.60,WSW,250,10.0,16.0,51,0.00,,CLR,0.04,VWS V14.01,2013-11-18 17:03:00,
2013-11-18 12:08:00,51.6,34.1,29.61,West,272,9.0,14.0,51,0.00,,CLR,0.04,VWS V14.01,2013-11-18 17:08:00,
2013-11-18 12:13:00,51.7,34.7,29.61,WSW,256,8.0,14.0,52,0.00,,CLR,0.04,VWS V14.01,2013-11-18 17:13:00,
2013-11-18 12:18:00,51.6,35.0,29.60,WSW,253,8.0,14.0,53,0.00,,CLR,0.04,VWS V14.01,2013-11-18 17:18:00,
2013-11-18 12:23:00,52.0,35.4,29.61,West,278,4.0,14.0,53,0.00,,CLR,0.04,VWS V14.01,2013-11-18 17:23:00,
2013-11-18 12:28:00,52.3,36.2,29.61,West,264,4.0,14.0,54,0.00,,CLR,0.04,VWS V14.01,2013-11-18 17:28:00,
2013-11-18 12:33:00,52.4,35.8,29.61,WSW,244,6.0,10.0,53,0.00,,CLR,0.04,VWS V14.01,2013-11-18 17:33:00,
2013-11-18 12:38:00,51.8,34.8,29.61,West,263,5.0,12.0,52,0.00,,CLR,0.04,VWS V14.01,2013-11-18 17:38:00,
2013-11-18 12:44:00,51.2,34.2,29.62,West,262,6.0,13.0,52,0.00,,CLR,0.04,VWS V14.01,2013-11-18 17:44:00,
2013-11-18 12:49:00,51.2,35.1,29.62,WSW,242,6.0,13.0,54,0.00,,FEW050,0.04,VWS V14.01,2013-11-18 17:49:00,
2013-11-18 12:54:00,51.8,34.8,29.62,West,266,11.0,15.0,52,0.00,,FEW050,0.04,VWS V14.01,2013-11-18 17:54:00,
2013-11-18 12:59:00,52.5,35.4,29.62,WSW,245,4.0,17.0,52,0.00,,FEW050,0.04,VWS V14.01,2013-11-18 17:59:00,
2013-11-18 13:04:00,52.7,35.6,29.62,WNW,300,6.0,11.0,52,0.00,,FEW050,0.04,VWS V14.01,2013-11-18 18:04:00,
2013-11-18 13:09:00,52.1,35.5,29.63,West,266,9.0,13.0,53,0.00,,FEW050,0.04,VWS V14.01,2013-11-18 18:09:00,
2013-11-18 13:14:00,51.5,35.0,29.63,West,265,7.0,13.0,53,0.00,,FEW050,0.04,VWS V14.01,2013-11-18 18:14:00,
2013-11-18 13:19:00,51.0,35.0,29.63,WSW,257,9.0,14.0,54,0.00,,FEW050,0.04,VWS V14.01,2013-11-18 18:19:00,
2013-11-18 13:24:00,51.2,35.1,29.63,WSW,256,6.0,14.0,54,0.00,,FEW050,0.04,VWS V14.01,2013-11-18 18:24:00,
2013-11-18 13:30:00,50.6,35.0,29.64,WNW,293,4.0,14.0,55,0.00,,FEW050,0.04,VWS V14.01,2013-11-18 18:30:00,
2013-11-18 13:35:00,50.2,34.7,29.64,West,271,9.0,12.0,55,0.00,,FEW050,0.04,VWS V14.01,2013-11-18 18:35:00,
2013-11-18 13:40:00,49.9,34.8,29.64,West,264,6.0,14.0,56,0.00,,FEW050,0.04,VWS V14.01,2013-11-18 18:40:00,
2013-11-18 13:45:00,49.8,34.3,29.64,WSW,250,10.0,14.0,55,0.00,,CLR,0.04,VWS V14.01,2013-11-18 18:45:00,
2013-11-18 13:50:00,50.1,35.0,29.64,NW,311,5.0,14.0,56,0.00,,CLR,0.04,VWS V14.01,2013-11-18 18:50:00,
2013-11-18 13:55:00,49.9,35.3,29.65,WSW,245,9.0,14.0,57,0.00,,CLR,0.04,VWS V14.01,2013-11-18 18:55:00,
2013-11-18 14:00:00,49.4,34.8,29.65,West,267,7.0,15.0,57,0.00,,CLR,0.04,VWS V14.01,2013-11-18 19:00:00,
2013-11-18 14:05:00,49.1,35.0,29.65,West,271,4.0,11.0,58,0.00,,CLR,0.04,VWS V14.01,2013-11-18 19:05:00,
2013-11-18 14:10:00,49.4,35.7,29.66,WSW,256,5.0,11.0,59,0.00,,CLR,0.04,VWS V14.01,2013-11-18 19:10:00,
2013-11-18 14:16:00,49.2,34.6,29.65,WNW,285,13.0,13.0,57,0.00,,CLR,0.04,VWS V14.01,2013-11-18 19:16:00,
2013-11-18 14:21:00,48.9,34.8,29.66,West,263,10.0,18.0,58,0.00,,CLR,0.04,VWS V14.01,2013-11-18 19:21:00,
2013-11-18 14:26:00,48.9,33.9,29.66,West,272,6.0,18.0,56,0.00,,CLR,0.04,VWS V14.01,2013-11-18 19:26:00,
2013-11-18 14:31:00,48.8,34.7,29.66,WSW,242,13.0,18.0,58,0.00,,CLR,0.04,VWS V14.01,2013-11-18 19:31:00,
2013-11-18 14:36:00,48.5,34.4,29.66,West,276,4.0,17.0,58,0.00,,CLR,0.04,VWS V14.01,2013-11-18 19:36:00,
2013-11-18 14:41:00,48.3,34.7,29.67,WSW,242,9.0,17.0,59,0.00,,CLR,0.04,VWS V14.01,2013-11-18 19:41:00,
2013-11-18 14:46:00,48.0,33.9,29.67,West,269,10.0,17.0,58,0.00,,FEW060,0.04,VWS V14.01,2013-11-18 19:46:00,
2013-11-18 14:51:00,47.7,34.1,29.67,North,349,7.0,17.0,59,0.00,,FEW060,0.04,VWS V14.01,2013-11-18 19:51:00,
2013-11-18 14:56:00,47.6,34.0,29.66,West,263,8.0,17.0,59,0.00,,FEW060,0.04,VWS V14.01,2013-11-18 19:56:00,
2013-11-18 15:02:00,47.6,34.0,29.66,West,271,7.0,17.0,59,0.00,,FEW060,0.04,VWS V14.01,2013-11-18 20:02:00,
2013-11-18 15:07:00,47.5,33.9,29.66,West,270,8.0,18.0,59,0.00,,FEW060,0.04,VWS V14.01,2013-11-18 20:07:00,
2013-11-18 15:12:00,47.4,33.8,29.66,WNW,290,8.0,18.0,59,0.00,,FEW060,0.04,VWS V14.01,2013-11-18 20:12:00,
2013-11-18 15:17:00,47.3,33.7,29.67,West,273,6.0,21.0,59,0.00,,FEW060,0.04,VWS V14.01,2013-11-18 20:17:00,
2013-11-18 15:22:00,47.2,34.0,29.67,West,271,7.0,21.0,60,0.00,,FEW060,0.04,VWS V14.01,2013-11-18 20:22:00,
2013-11-18 15:27:00,47.1,33.9,29.67,West,269,5.0,21.0,60,0.00,,FEW060,0.04,VWS V14.01,2013-11-18 20:27:00,
2013-11-18 15:32:00,47.0,34.3,29.67,West,265,6.0,21.0,61,0.00,,FEW060,0.04,VWS V14.01,2013-11-18 20:32:00,
2013-11-18 15:37:00,46.9,34.2,29.68,West,274,5.0,9.0,61,0.00,,FEW060,0.04,VWS V14.01,2013-11-18 20:37:00,
2013-11-18 15:42:00,46.7,34.4,29.68,West,269,7.0,11.0,62,0.00,,FEW060,0.04,VWS V14.01,2013-11-18 20:42:00,
2013-11-18 15:47:00,46.5,34.6,29.68,WSW,257,6.0,12.0,63,0.00,,CLR,0.04,VWS V14.01,2013-11-18 20:47:00,
2013-11-18 15:52:00,46.4,34.9,29.68,WSW,253,3.0,12.0,64,0.00,,CLR,0.04,VWS V14.01,2013-11-18 20:52:00,
2013-11-18 15:57:00,46.3,34.4,29.68,WSW,250,5.0,12.0,63,0.00,,CLR,0.04,VWS V14.01,2013-11-18 20:57:00,
2013-11-18 16:03:00,46.3,34.4,29.68,West,267,7.0,12.0,63,0.00,,CLR,0.04,VWS V14.01,2013-11-18 21:03:00,
2013-11-18 16:08:00,46.3,34.4,29.69,WSW,243,7.0,11.0,63,0.00,,CLR,0.04,VWS V14.01,2013-11-18 21:08:00,
2013-11-18 16:13:00,46.3,34.4,29.69,WSW,253,6.0,11.0,63,0.00,,CLR,0.04,VWS V14.01,2013-11-18 21:13:00,
2013-11-18 16:18:00,46.1,35.0,29.70,West,264,2.0,11.0,65,0.00,,CLR,0.04,VWS V14.01,2013-11-18 21:18:00,
2013-11-18 16:23:00,45.4,36.6,29.70,West,276,4.0,11.0,71,0.00,,CLR,0.04,VWS V14.01,2013-11-18 21:23:00,
2013-11-18 16:28:00,44.5,36.7,29.70,WSW,257,4.0,11.0,74,0.00,,CLR,0.04,VWS V14.01,2013-11-18 21:28:00,
2013-11-18 16:33:00,43.9,36.8,29.71,West,265,6.0,6.0,76,0.00,,CLR,0.04,VWS V14.01,2013-11-18 21:33:00,
2013-11-18 16:38:00,43.6,36.9,29.71,WNW,295,4.0,8.0,77,0.00,,CLR,0.04,VWS V14.01,2013-11-18 21:38:00,
2013-11-18 16:43:00,43.2,36.8,29.71,WSW,255,3.0,9.0,78,0.00,,CLR,0.04,VWS V14.01,2013-11-18 21:43:00,
2013-11-18 16:49:00,42.9,36.8,29.71,West,264,5.0,9.0,79,0.00,,BKN060,0.04,VWS V14.01,2013-11-18 21:49:00,
2013-11-18 16:54:00,42.7,37.0,29.71,West,280,8.0,10.0,80,0.00,,BKN060,0.04,VWS V14.01,2013-11-18 21:54:00,
2013-11-18 16:59:00,42.6,36.9,29.72,WSW,253,5.0,14.0,80,0.00,,BKN060,0.04,VWS V14.01,2013-11-18 21:59:00,
2013-11-18 17:04:00,42.5,37.1,29.72,West,266,5.0,9.0,81,0.00,,BKN060,0.04,VWS V14.01,2013-11-18 22:04:00,
2013-11-18 17:09:00,42.1,37.3,29.73,West,259,8.0,12.0,83,0.00,,BKN060,0.04,VWS V14.01,2013-11-18 22:09:00,
2013-11-18 17:14:00,41.8,37.0,29.73,West,260,11.0,14.0,83,0.00,,BKN060,0.04,VWS V14.01,2013-11-18 22:14:00,
2013-11-18 17:19:00,41.9,36.8,29.73,West,263,4.0,14.0,82,0.00,,BKN060,0.04,VWS V14.01,2013-11-18 22:19:00,
2013-11-18 17:24:00,42.0,36.6,29.73,West,262,8.0,14.0,81,0.00,,BKN060,0.04,VWS V14.01,2013-11-18 22:24:00,
2013-11-18 17:29:00,42.1,36.4,29.74,WSW,250,6.0,14.0,80,0.00,,BKN060,0.04,VWS V14.01,2013-11-18 22:29:00,
2013-11-18 17:35:00,42.2,36.2,29.74,WNW,284,5.0,11.0,79,0.00,,BKN060,0.04,VWS V14.01,2013-11-18 22:35:00,
2013-11-18 17:40:00,42.3,36.3,29.74,West,270,4.0,12.0,79,0.00,,BKN060,0.04,VWS V14.01,2013-11-18 22:40:00,
2013-11-18 17:45:00,42.3,35.9,29.74,West,259,7.0,12.0,78,0.00,,OVC075,0.04,VWS V14.01,2013-11-18 22:45:00,
2013-11-18 17:50:00,42.3,35.9,29.75,WSW,248,5.0,12.0,78,0.00,,OVC075,0.04,VWS V14.01,2013-11-18 22:50:00,
2013-11-18 17:55:00,42.3,35.9,29.74,WSW,257,8.0,12.0,78,0.00,,OVC075,0.04,VWS V14.01,2013-11-18 22:55:00,
2013-11-18 18:00:00,42.3,35.9,29.75,West,260,9.0,12.0,78,0.00,,OVC075,0.04,VWS V14.01,2013-11-18 23:00:00,
2013-11-18 18:05:00,42.3,35.9,29.75,WNW,285,8.0,11.0,78,0.00,,OVC075,0.04,VWS V14.01,2013-11-18 23:05:00,
2013-11-18 18:10:00,42.2,35.8,29.76,West,267,4.0,11.0,78,0.00,,OVC075,0.04,VWS V14.01,2013-11-18 23:10:00,
2013-11-18 18:15:00,42.2,36.2,29.76,West,260,4.0,11.0,79,0.00,,OVC075,0.04,VWS V14.01,2013-11-18 23:15:00,
2013-11-18 18:21:00,42.0,36.0,29.77,West,263,11.0,12.0,79,0.00,,OVC075,0.04,VWS V14.01,2013-11-18 23:21:00,
2013-11-18 18:26:00,41.9,35.5,29.77,WSW,242,8.0,14.0,78,0.00,,OVC075,0.04,VWS V14.01,2013-11-18 23:26:00,
2013-11-18 18:31:00,41.8,35.8,29.77,West,264,4.0,14.0,79,0.00,,OVC075,0.04,VWS V14.01,2013-11-18 23:31:00,
2013-11-18 18:36:00,41.7,35.7,29.77,West,273,4.0,10.0,79,0.00,,OVC075,0.04,VWS V14.01,2013-11-18 23:36:00,
2013-11-18 18:41:00,41.6,34.9,29.77,West,269,3.0,10.0,77,0.00,,OVC075,0.04,VWS V14.01,2013-11-18 23:41:00,
2013-11-18 18:46:00,41.6,34.6,29.78,WSW,255,3.0,10.0,76,0.00,,-RA,0.04,VWS V14.01,2013-11-18 23:46:00,
2013-11-18 18:51:00,41.5,34.2,29.78,WNW,291,3.0,10.0,75,0.00,,-RA,0.04,VWS V14.01,2013-11-18 23:51:00,
2013-11-18 18:56:00,41.4,33.4,29.78,West,267,3.0,13.0,73,0.00,,-RA,0.04,VWS V14.01,2013-11-18 23:56:00,
2013-11-18 19:01:00,41.3,33.0,29.78,West,271,5.0,13.0,72,0.00,,-RA,0.04,VWS V14.01,2013-11-19 00:01:00,
2013-11-18 19:06:00,41.3,32.6,29.79,West,273,2.0,13.0,71,0.00,,-RA,0.04,VWS V14.01,2013-11-19 00:06:00,
2013-11-18 19:12:00,41.1,32.8,29.79,WSW,248,7.0,13.0,72,0.00,,-RA,0.04,VWS V14.01,2013-11-19 00:12:00,
2013-11-18 19:17:00,40.6,32.3,29.80,SW,236,5.0,15.0,72,0.00,,-RA,0.04,VWS V14.01,2013-11-19 00:17:00,
2013-11-18 19:22:00,40.2,31.9,29.80,West,264,3.0,15.0,72,0.00,,-RA,0.04,VWS V14.01,2013-11-19 00:22:00,
2013-11-18 19:27:00,39.9,32.0,29.80,WNW,290,5.0,15.0,73,0.00,,-RA,0.04,VWS V14.01,2013-11-19 00:27:00,
2013-11-18 19:32:00,39.6,31.7,29.81,West,265,5.0,15.0,73,0.00,,-RA,0.04,VWS V14.01,2013-11-19 00:32:00,
2013-11-18 19:37:00,39.4,31.8,29.81,WNW,298,4.0,8.0,74,0.00,,-RA,0.04,VWS V14.01,2013-11-19 00:37:00,
2013-11-18 19:42:00,39.3,31.4,29.81,West,267,3.0,11.0,73,0.00,,-RA,0.04,VWS V14.01,2013-11-19 00:42:00,
2013-11-18 19:47:00,39.1,31.9,29.82,WSW,253,6.0,11.0,75,0.00,,-RA,0.04,VWS V14.01,2013-11-19 00:47:00,
2013-11-18 19:52:00,38.9,32.0,29.82,West,273,7.0,11.0,76,0.00,,-RA,0.04,VWS V14.01,2013-11-19 00:52:00,
2013-11-18 19:58:00,38.6,32.3,29.82,WSW,238,6.0,11.0,78,0.00,,-RA,0.04,VWS V14.01,2013-11-19 00:58:00,
2013-11-18 20:03:00,38.3,32.7,29.82,West,266,5.0,11.0,80,0.00,,-RA,0.04,VWS V14.01,2013-11-19 01:03:00,
2013-11-18 20:08:00,37.9,32.9,29.83,West,267,4.0,7.0,82,0.00,,-RA,0.04,VWS V14.01,2013-11-19 01:08:00,
2013-11-18 20:13:00,37.6,33.2,29.83,WSW,255,4.0,7.0,84,0.00,,-RA,0.04,VWS V14.01,2013-11-19 01:13:00,
2013-11-18 20:18:00,37.5,33.1,29.83,WSW,240,8.0,10.0,84,0.00,,-RA,0.04,VWS V14.01,2013-11-19 01:18:00,
2013-11-18 20:23:00,37.3,32.9,29.83,WSW,240,5.0,11.0,84,0.00,,-RA,0.04,VWS V14.01,2013-11-19 01:23:00,
2013-11-18 20:28:00,37.2,33.1,29.83,WSW,245,6.0,11.0,85,0.00,,-RA,0.04,VWS V14.01,2013-11-19 01:28:00,
2013-11-18 20:33:00,37.1,33.0,29.83,West,281,3.0,5.0,85,0.00,,-RA,0.04,VWS V14.01,2013-11-19 01:33:00,
2013-11-18 20:38:00,37.2,32.5,29.84,West,277,4.0,10.0,83,0.00,,-RA,0.04,VWS V14.01,2013-11-19 01:38:00,
2013-11-18 20:43:00,37.2,32.5,29.84,WSW,252,3.0,10.0,83,0.00,,-RA,0.04,VWS V14.01,2013-11-19 01:43:00,
2013-11-18 20:45:00,37.2,32.2,29.84,WNW,287,3.0,10.0,82,0.00,,-RA,0.04,VWS V14.01,2013-11-19 01:45:00,
2013-11-18 20:50:00,37.3,32.0,29.84,West,276,2.0,10.0,81,0.00,,-RA,0.04,VWS V14.01,2013-11-19 01:50:00,
2013-11-18 20:55:00,37.3,31.7,29.84,West,265,3.0,10.0,80,0.00,,-RA,0.04,VWS V14.01,2013-11-19 01:55:00,
2013-11-18 21:01:00,37.3,31.7,29.84,West,261,2.0,10.0,80,0.00,,-RA,0.04,VWS V14.01,2013-11-19 02:01:00,
2013-11-18 21:06:00,37.3,31.4,29.84,West,269,2.0,6.0,79,0.00,,-RA,0.04,VWS V14.01,2013-11-19 02:06:00,
2013-11-18 21:11:00,37.3,31.1,29.85,WSW,256,8.0,11.0,78,0.00,,-RA,0.04,VWS V14.01,2013-11-19 02:11:00,
2013-11-18 21:16:00,37.5,29.6,29.85,West,262,3.0,11.0,73,0.00,,-RA,0.04,VWS V14.01,2013-11-19 02:16:00,
2013-11-18 21:21:00,37.6,29.1,29.85,West,260,4.0,11.0,71,0.00,,-RA,0.04,VWS V14.01,2013-11-19 02:21:00,
2013-11-18 21:26:00,37.7,28.8,29.86,NW,321,4.0,11.0,70,0.00,,-RA,0.04,VWS V14.01,2013-11-19 02:26:00,
2013-11-18 21:31:00,37.8,27.8,29.86,West,269,4.0,11.0,67,0.00,,-RA,0.04,VWS V14.01,2013-11-19 02:31:00,
2013-11-18 21:36:00,37.9,28.3,29.86,West,267,4.0,8.0,68,0.00,,-RA,0.04,VWS V14.01,2013-11-19 02:36:00,
2013-11-18 21:41:00,37.8,28.2,29.86,WSW,240,6.0,8.0,68,0.00,,-RA,0.04,VWS V14.01,2013-11-19 02:41:00,
2013-11-18 21:47:00,37.8,28.6,29.86,SW,236,8.0,8.0,69,0.00,,,0.04,VWS V14.01,2013-11-19 02:47:00,
2013-11-18 21:52:00,37.8,28.6,29.87,East,79,9.0,9.0,69,0.00,,,0.04,VWS V14.01,2013-11-19 02:52:00,
2013-11-18 21:57:00,37.6,28.0,29.87,West,264,7.0,12.0,68,0.00,,,0.04,VWS V14.01,2013-11-19 02:57:00,
2013-11-18 22:02:00,37.4,27.5,29.87,NW,318,4.0,20.0,67,0.00,,,0.04,VWS V14.01,2013-11-19 03:02:00,
2013-11-18 22:07:00,37.2,27.6,29.87,West,274,2.0,9.0,68,0.00,,,0.04,VWS V14.01,2013-11-19 03:07:00,
2013-11-18 22:12:00,36.9,27.7,29.88,West,273,4.0,11.0,69,0.00,,,0.04,VWS V14.01,2013-11-19 03:12:00,
2013-11-18 22:17:00,36.9,27.7,29.88,South,179,4.0,13.0,69,0.00,,,0.04,VWS V14.01,2013-11-19 03:17:00,
2013-11-18 22:22:00,36.8,26.9,29.88,West,276,7.0,14.0,67,0.00,,,0.04,VWS V14.01,2013-11-19 03:22:00,
2013-11-18 22:27:00,36.6,27.0,29.88,West,260,6.0,18.0,68,0.00,,,0.04,VWS V14.01,2013-11-19 03:27:00,
2013-11-18 22:32:00,36.4,26.9,29.88,WSW,238,4.0,18.0,68,0.00,,,0.04,VWS V14.01,2013-11-19 03:32:00,
2013-11-18 22:37:00,36.3,27.1,29.88,West,266,4.0,9.0,69,0.00,,,0.04,VWS V14.01,2013-11-19 03:37:00,
2013-11-18 22:42:00,36.0,26.8,29.88,WSW,245,5.0,9.0,69,0.00,,,0.04,VWS V14.01,2013-11-19 03:42:00,
2013-11-18 22:48:00,35.9,27.1,29.88,WNW,286,4.0,9.0,70,0.00,,OVC060,0.04,VWS V14.01,2013-11-19 03:48:00,
2013-11-18 22:53:00,35.9,27.1,29.88,WSW,254,9.0,12.0,70,0.00,,OVC060,0.04,VWS V14.01,2013-11-19 03:53:00,
2013-11-18 22:58:00,36.0,27.2,29.89,West,279,4.0,18.0,70,0.00,,OVC060,0.04,VWS V14.01,2013-11-19 03:58:00,
2013-11-18 23:03:00,36.0,27.2,29.89,WNW,300,6.0,18.0,70,0.00,,OVC060,0.04,VWS V14.01,2013-11-19 04:03:00,
2013-11-18 23:07:00,36.1,27.3,29.89,West,264,3.0,12.0,70,0.00,,OVC060,0.04,VWS V14.01,2013-11-19 04:07:00,
2013-11-18 23:12:00,36.0,27.5,29.89,West,276,7.0,12.0,71,0.00,,OVC060,0.04,VWS V14.01,2013-11-19 04:12:00,
2013-11-18 23:17:00,36.0,27.5,29.89,WNW,291,7.0,12.0,71,0.00,,OVC060,0.04,VWS V14.01,2013-11-19 04:17:00,
2013-11-18 23:22:00,36.0,27.2,29.90,WSW,253,4.0,12.0,70,0.00,,OVC060,0.04,VWS V14.01,2013-11-19 04:22:00,
2013-11-18 23:27:00,36.1,27.3,29.90,West,264,3.0,12.0,70,0.00,,OVC060,0.04,VWS V14.01,2013-11-19 04:27:00,
2013-11-18 23:32:00,36.1,27.3,29.90,West,269,5.0,12.0,70,0.00,,OVC060,0.04,VWS V14.01,2013-11-19 04:32:00,
2013-11-18 23:37:00,36.2,27.4,29.90,West,281,3.0,9.0,70,0.00,,OVC060,0.04,VWS V14.01,2013-11-19 04:37:00,
2013-11-18 23:42:00,36.2,27.4,29.90,SW,224,5.0,10.0,70,0.00,,OVC060,0.04,VWS V14.01,2013-11-19 04:42:00,
2013-11-18 23:47:00,36.3,27.1,29.90,WSW,256,6.0,10.0,69,0.00,,BKN065,0.04,VWS V14.01,2013-11-19 04:47:00,
2013-11-18 23:53:00,36.3,27.1,29.90,West,273,6.0,17.0,69,0.00,,BKN065,0.04,VWS V14.01,2013-11-19 04:53:00,
2013-11-18 23:58:00,36.4,26.9,29.90,WSW,238,4.0,17.0,68,0.00,,BKN065,0.04,VWS V14.01,2013-11-19 04:58:00,